SAEZ/EZE METAR and TAF weather

Enter ICAO airport designator
Station Type Date Time Source
SAEZ METAR 2022/05/23 15:00 UTC NOAA

SAEZ 231500Z 35008KT CAVOK 19/11 Q1016 NOSIG


Station Type Date Time Source
SAEZ Decoded METAR 2022/05/23 15:00 UTC NOAA

Ezeiza Aerodrome, Argentina (SAEZ) 34-49S 058-32W 20M
May 23, 2022 - 11:00 AM EDT / 2022.05.23 1500 UTC
Wind: from the N (350 degrees) at 9 MPH (8 KT):0
Visibility: greater than 7 mile(s):0
Temperature: 66 F (19 C)
Dew Point: 51 F (11 C)
Relative Humidity: 59%
Pressure (altimeter): 30.00 in. Hg (1016 hPa)
ob: SAEZ 231500Z 35008KT CAVOK 19/11 Q1016 NOSIG
cycle: 15

Station Type Date Time Source
SAEZ TAF 2022/05/23 12:10 UTC NOAA

TAF SAEZ 231100Z 2312/2412 03003KT 2000 MIFG SCT010 SCT050 TX20/2318Z TN10/2410Z
BECMG 2313/2315 CAVOK
BECMG 2318/2321 07005KT 9999 BKN030
BECMG 2400/2403 9999 BKN050
BECMG 2409/2412 34007KT 5000 BR NSC

Example: see airport list